Time;durP1;ratioP1;P1;durP2;ratioP2;P2;SDS_P1;SDS_P2;PMS_P1;PMS_P2;Temp;Humidity;BMP_temperature;BMP_pressure;BME280_temperature;BME280_humidity;BME280_pressure;Samples;Min_cycle;Max_cycle;Signal;HPM_P1;HPM_P2
2021/12/31 00:01:10;;;;;;;2.90;1.50;;;11.70;99.90;;;;;;8444072;28;20188;-83
2021/12/31 00:05:11;;;;;;;2.23;1.80;;;11.70;99.90;;;;;;8453214;28;20203;-83
2021/12/31 00:09:12;;;;;;;2.33;1.60;;;11.70;99.90;;;;;;8446624;28;20271;-84
2021/12/31 00:13:12;;;;;;;2.83;2.10;;;11.70;99.90;;;;;;8447586;27;20183;-84
2021/12/31 00:17:13;;;;;;;2.20;1.47;;;11.70;99.90;;;;;;8449588;27;20214;-82
2021/12/31 00:21:14;;;;;;;1.47;1.30;;;11.70;99.90;;;;;;8445095;27;20177;-83
2021/12/31 00:25:15;;;;;;;2.73;1.90;;;11.70;99.90;;;;;;8452116;27;20181;-83
2021/12/31 00:29:16;;;;;;;3.53;1.67;;;11.70;99.90;;;;;;8458162;27;20175;-82
2021/12/31 00:33:17;;;;;;;2.63;2.23;;;11.70;99.90;;;;;;8450067;27;20180;-83
2021/12/31 00:37:34;;;;;;;2.07;1.80;;;11.70;99.90;;;;;;8452621;28;20235;-83
2021/12/31 00:41:35;;;;;;;3.63;2.13;;;11.70;99.90;;;;;;8451218;28;20244;-83
2021/12/31 00:45:39;;;;;;;5.17;2.10;;;11.60;99.90;;;;;;8455995;27;20192;-83
2021/12/31 00:49:40;;;;;;;2.77;1.60;;;11.60;99.90;;;;;;8453556;28;20194;-82
2021/12/31 00:53:41;;;;;;;3.57;1.80;;;11.60;99.90;;;;;;8448583;28;20192;-82
2021/12/31 00:57:42;;;;;;;3.03;1.60;;;11.60;99.90;;;;;;8457974;27;20531;-83
2021/12/31 01:01:43;;;;;;;2.80;1.50;;;11.70;99.90;;;;;;8449550;27;20224;-83
2021/12/31 01:05:43;;;;;;;2.83;2.00;;;11.60;99.90;;;;;;8446423;27;20252;-82
2021/12/31 01:09:45;;;;;;;3.60;2.20;;;11.60;99.90;;;;;;8456330;27;20199;-82
2021/12/31 01:13:59;;;;;;;5.43;1.63;;;11.60;99.90;;;;;;8444324;28;20184;-82
2021/12/31 01:18:16;;;;;;;3.27;1.90;;;11.60;99.90;;;;;;8454238;27;20215;-84
2021/12/31 01:22:25;;;;;;;2.37;1.53;;;11.60;99.90;;;;;;8445758;27;20222;-83
2021/12/31 01:26:25;;;;;;;3.60;1.90;;;11.70;99.90;;;;;;8443268;27;20205;-82
2021/12/31 01:30:26;;;;;;;2.63;1.87;;;11.70;99.90;;;;;;8459847;27;20297;-83
2021/12/31 01:34:27;;;;;;;4.40;2.00;;;11.70;99.90;;;;;;8446817;27;20196;-84
2021/12/31 01:38:29;;;;;;;3.70;1.80;;;11.70;99.90;;;;;;8454272;27;20215;-84
2021/12/31 01:42:33;;;;;;;1.57;1.47;;;11.70;99.90;;;;;;8448915;27;20188;-84
2021/12/31 01:46:36;;;;;;;2.73;1.57;;;11.70;99.90;;;;;;8453549;28;20194;-84
2021/12/31 01:50:37;;;;;;;4.37;1.67;;;11.80;99.90;;;;;;8451575;28;20184;-83
2021/12/31 01:54:38;;;;;;;3.73;1.73;;;11.80;99.90;;;;;;8449171;28;20187;-83
2021/12/31 01:58:39;;;;;;;1.87;1.40;;;11.80;99.90;;;;;;8453130;27;20212;-83
2021/12/31 02:02:44;;;;;;;2.93;1.63;;;11.80;99.90;;;;;;8452307;27;20191;-83
2021/12/31 02:06:45;;;;;;;2.10;1.47;;;11.80;99.90;;;;;;8445692;28;20196;-84
2021/12/31 02:10:50;;;;;;;2.00;1.40;;;11.80;99.90;;;;;;8454546;27;20521;-84
2021/12/31 02:14:51;;;;;;;3.23;1.80;;;11.80;99.90;;;;;;8442349;27;20213;-83
2021/12/31 02:18:52;;;;;;;3.47;1.30;;;11.80;99.90;;;;;;8446501;27;20216;-84
2021/12/31 02:22:56;;;;;;;1.67;1.40;;;11.80;99.90;;;;;;8455037;27;20179;-83
2021/12/31 02:26:58;;;;;;;3.00;1.60;;;11.80;99.90;;;;;;8454491;27;20192;-84
2021/12/31 02:31:03;;;;;;;3.47;1.73;;;11.80;99.90;;;;;;8453259;28;20295;-83
2021/12/31 02:35:05;;;;;;;1.90;1.70;;;11.90;99.90;;;;;;8456677;27;20187;-83
2021/12/31 02:39:07;;;;;;;1.77;1.43;;;11.80;99.90;;;;;;8451482;27;20333;-82
2021/12/31 02:43:07;;;;;;;1.33;1.10;;;11.80;99.90;;;;;;8447799;27;20264;-83
2021/12/31 02:47:09;;;;;;;2.37;1.60;;;11.80;99.90;;;;;;8448932;27;20245;-84
2021/12/31 02:51:10;;;;;;;4.07;1.40;;;11.80;99.90;;;;;;8441992;27;20188;-83
2021/12/31 02:55:11;;;;;;;1.13;1.03;;;11.80;99.90;;;;;;8445346;28;20206;-83
2021/12/31 02:59:12;;;;;;;1.20;1.10;;;11.80;99.90;;;;;;8445565;28;20270;-84
2021/12/31 03:03:14;;;;;;;2.90;1.17;;;11.80;99.90;;;;;;8447420;28;20179;-83
2021/12/31 03:07:18;;;;;;;1.20;1.10;;;11.80;99.90;;;;;;8446217;28;20176;-83
2021/12/31 03:11:20;;;;;;;1.67;1.20;;;11.80;99.90;;;;;;8444977;28;20203;-83
2021/12/31 03:15:22;;;;;;;1.40;1.20;;;11.80;99.90;;;;;;8448377;28;20188;-83
2021/12/31 03:19:23;;;;;;;2.23;0.97;;;11.80;99.90;;;;;;8455785;28;20184;-84
2021/12/31 03:23:25;;;;;;;1.37;1.10;;;11.80;99.90;;;;;;8450916;28;20183;-83
2021/12/31 03:27:26;;;;;;;3.53;1.03;;;11.80;99.90;;;;;;8446842;28;20184;-83
2021/12/31 03:31:27;;;;;;;2.33;1.00;;;11.80;99.90;;;;;;8452286;28;20180;-83
2021/12/31 03:35:28;;;;;;;2.67;1.00;;;11.80;99.90;;;;;;8448296;28;20188;-83
2021/12/31 03:39:29;;;;;;;3.07;2.60;;;11.80;99.90;;;;;;8448961;27;20265;-82
2021/12/31 03:43:30;;;;;;;3.00;2.70;;;11.80;99.90;;;;;;8450497;27;20194;-82
2021/12/31 03:47:30;;;;;;;2.80;2.07;;;11.70;99.90;;;;;;8454945;27;20215;-82
2021/12/31 03:51:31;;;;;;;2.10;1.60;;;11.70;99.90;;;;;;8450996;27;20183;-82
2021/12/31 03:55:32;;;;;;;3.87;1.20;;;11.70;99.90;;;;;;8457858;27;20309;-83
2021/12/31 03:59:33;;;;;;;1.80;1.40;;;11.70;99.90;;;;;;8451862;28;20191;-82
2021/12/31 04:03:34;;;;;;;2.77;1.83;;;11.70;99.90;;;;;;8451768;28;20391;-83
2021/12/31 04:07:35;;;;;;;2.10;1.20;;;11.80;99.90;;;;;;8451352;28;20211;-83
2021/12/31 04:11:36;;;;;;;1.57;1.10;;;11.70;99.90;;;;;;8466781;27;20203;-82
2021/12/31 04:15:37;;;;;;;2.70;1.10;;;11.70;99.90;;;;;;8450287;27;20204;-81
2021/12/31 04:19:37;;;;;;;0.80;0.70;;;11.70;99.90;;;;;;8449867;27;20203;-82
2021/12/31 04:23:49;;;;;;;2.33;1.17;;;11.70;99.90;;;;;;8458494;27;20176;-82
2021/12/31 04:27:51;;;;;;;1.17;1.00;;;11.70;99.90;;;;;;8450599;27;20192;-82
2021/12/31 04:31:51;;;;;;;2.20;1.57;;;11.70;99.90;;;;;;8454453;27;20184;-82
2021/12/31 04:35:52;;;;;;;2.73;0.97;;;11.70;99.90;;;;;;8449370;27;20226;-83
2021/12/31 04:39:54;;;;;;;1.63;0.90;;;11.70;99.90;;;;;;8446919;27;20207;-82
2021/12/31 04:43:54;;;;;;;1.63;1.30;;;11.70;99.90;;;;;;8454165;27;20177;-83
2021/12/31 04:47:55;;;;;;;2.37;1.23;;;11.70;99.90;;;;;;8457226;27;20184;-83
2021/12/31 04:51:56;;;;;;;1.20;1.10;;;11.70;99.90;;;;;;8454827;27;20221;-82
2021/12/31 04:55:57;;;;;;;1.73;0.90;;;11.70;99.90;;;;;;8456052;27;20279;-83
2021/12/31 04:59:58;;;;;;;1.80;0.90;;;11.70;99.90;;;;;;8464341;27;20194;-82
2021/12/31 05:03:59;;;;;;;2.10;0.90;;;11.70;99.90;;;;;;8461572;27;20172;-82
2021/12/31 05:07:59;;;;;;;1.80;0.80;;;11.60;99.90;;;;;;8453212;27;20188;-83
2021/12/31 05:12:01;;;;;;;1.33;1.00;;;11.70;99.90;;;;;;8450533;27;20199;-82
2021/12/31 05:16:04;;;;;;;2.13;0.70;;;11.70;99.90;;;;;;8451149;28;20280;-83
2021/12/31 05:20:06;;;;;;;1.83;1.13;;;11.60;99.90;;;;;;8458536;27;20195;-82
2021/12/31 05:24:07;;;;;;;1.77;1.00;;;11.70;99.90;;;;;;8453621;27;20169;-83
2021/12/31 05:28:08;;;;;;;1.80;1.47;;;11.70;99.90;;;;;;8453268;27;20188;-84
2021/12/31 05:32:09;;;;;;;2.20;1.10;;;11.70;99.90;;;;;;8454687;27;20180;-83
2021/12/31 05:36:10;;;;;;;1.07;0.83;;;11.70;99.90;;;;;;8451030;27;20203;-82
2021/12/31 05:40:11;;;;;;;1.80;0.70;;;11.80;99.90;;;;;;8454821;27;20188;-83
2021/12/31 05:44:12;;;;;;;1.93;0.90;;;11.80;99.90;;;;;;8450238;28;20207;-82
2021/12/31 05:48:13;;;;;;;2.37;0.80;;;11.80;99.90;;;;;;8446337;27;20189;-82
2021/12/31 05:52:14;;;;;;;0.77;0.60;;;11.90;99.90;;;;;;8453797;27;20188;-83
2021/12/31 05:56:17;;;;;;;1.10;0.60;;;11.90;99.90;;;;;;8444326;27;20230;-82
2021/12/31 06:00:18;;;;;;;0.87;0.63;;;12.00;99.90;;;;;;8444702;27;20176;-83
2021/12/31 06:04:19;;;;;;;1.57;1.33;;;12.00;99.90;;;;;;8446172;27;20184;-83
2021/12/31 06:08:20;;;;;;;2.17;0.77;;;12.10;99.90;;;;;;8445748;28;20187;-83
2021/12/31 06:12:23;;;;;;;5.20;2.47;;;12.10;99.90;;;;;;8450808;27;20203;-82
2021/12/31 06:16:24;;;;;;;2.63;1.40;;;12.20;99.90;;;;;;8456815;27;20241;-83
2021/12/31 06:20:28;;;;;;;3.07;1.10;;;12.20;99.90;;;;;;8446466;27;20179;-83
2021/12/31 06:24:29;;;;;;;1.10;0.60;;;12.20;99.90;;;;;;8447055;28;20184;-83
2021/12/31 06:28:30;;;;;;;1.83;1.17;;;12.30;99.90;;;;;;8449937;27;20184;-83
2021/12/31 06:32:31;;;;;;;4.37;0.93;;;12.20;99.90;;;;;;8440578;27;20199;-84
2021/12/31 06:36:32;;;;;;;0.60;0.50;;;12.30;99.90;;;;;;8451223;27;20208;-84
2021/12/31 06:40:35;;;;;;;1.37;0.50;;;12.40;99.90;;;;;;8456958;27;20285;-84
2021/12/31 06:44:37;;;;;;;0.53;0.40;;;12.40;99.90;;;;;;8441583;27;20175;-84
2021/12/31 06:48:38;;;;;;;0.57;0.40;;;12.40;99.90;;;;;;8446862;28;20185;-81
2021/12/31 06:52:40;;;;;;;0.47;0.37;;;12.40;99.90;;;;;;8446916;27;20238;-82
2021/12/31 06:56:40;;;;;;;6.47;1.47;;;12.30;99.90;;;;;;8446239;27;20196;-83
2021/12/31 07:00:41;;;;;;;1.10;0.50;;;12.20;99.90;;;;;;8448961;27;20274;-82
2021/12/31 07:04:42;;;;;;;1.07;0.63;;;12.30;99.90;;;;;;8440266;28;20180;-82
2021/12/31 07:08:45;;;;;;;1.70;0.70;;;12.30;99.90;;;;;;8440933;27;20191;-82
2021/12/31 07:12:46;;;;;;;3.53;0.80;;;12.10;99.90;;;;;;8436348;28;20207;-84
2021/12/31 07:16:47;;;;;;;1.30;0.60;;;12.10;99.90;;;;;;8447342;28;20218;-83
2021/12/31 07:20:48;;;;;;;0.80;0.50;;;12.20;99.90;;;;;;8439730;28;20180;-83
2021/12/31 07:24:49;;;;;;;1.30;0.80;;;12.20;99.90;;;;;;8452723;28;20282;-83
2021/12/31 07:28:50;;;;;;;3.67;0.70;;;12.20;99.90;;;;;;8446049;28;20191;-82
2021/12/31 07:32:51;;;;;;;6.33;0.80;;;12.30;99.90;;;;;;8449666;28;20188;-81
2021/12/31 07:36:52;;;;;;;2.03;0.70;;;12.30;99.90;;;;;;8439389;28;20211;-79
2021/12/31 07:40:53;;;;;;;1.97;1.07;;;12.60;99.90;;;;;;8447007;28;20186;-79
2021/12/31 07:44:53;;;;;;;3.13;0.80;;;12.70;99.90;;;;;;8445801;28;20252;-79
2021/12/31 07:48:55;;;;;;;1.23;0.53;;;12.60;99.90;;;;;;8442355;28;20180;-79
2021/12/31 07:52:55;;;;;;;1.13;0.63;;;12.70;99.90;;;;;;8446287;28;20184;-80
2021/12/31 07:56:56;;;;;;;2.17;0.60;;;12.70;99.90;;;;;;8439151;28;20207;-79
2021/12/31 08:00:57;;;;;;;1.27;0.70;;;12.70;99.90;;;;;;8444035;28;20211;-79
2021/12/31 08:04:58;;;;;;;0.80;0.60;;;12.70;99.90;;;;;;8440321;28;20266;-78
2021/12/31 08:08:59;;;;;;;0.83;0.63;;;12.70;99.90;;;;;;8443403;28;20192;-79
2021/12/31 08:13:01;;;;;;;1.83;0.60;;;12.70;99.90;;;;;;8440992;28;20188;-79
2021/12/31 08:17:02;;;;;;;1.00;0.70;;;12.70;99.90;;;;;;8435137;28;20243;-79
2021/12/31 08:21:03;;;;;;;1.57;0.80;;;12.80;99.90;;;;;;8440513;28;20183;-79
2021/12/31 08:25:04;;;;;;;1.73;1.40;;;12.90;99.90;;;;;;8433685;28;20179;-79
2021/12/31 08:29:05;;;;;;;2.40;1.50;;;12.90;99.90;;;;;;8445142;27;20184;-79
2021/12/31 08:33:06;;;;;;;2.33;0.70;;;12.90;99.90;;;;;;8452187;27;20210;-79
2021/12/31 08:37:07;;;;;;;2.17;0.80;;;13.00;99.90;;;;;;8451846;27;20215;-77
2021/12/31 08:41:08;;;;;;;0.87;0.57;;;13.00;99.90;;;;;;8450082;28;20198;-80
2021/12/31 08:45:10;;;;;;;1.97;1.00;;;13.10;99.90;;;;;;8453466;27;20202;-82
2021/12/31 08:49:11;;;;;;;2.53;0.60;;;13.10;99.90;;;;;;8441108;27;20192;-81
2021/12/31 08:53:15;;;;;;;1.20;0.67;;;13.20;99.90;;;;;;8447925;28;20190;-80
2021/12/31 08:57:16;;;;;;;4.40;0.70;;;13.30;99.90;;;;;;8455555;28;20206;-81
2021/12/31 09:01:18;;;;;;;1.10;0.73;;;13.50;99.90;;;;;;8459523;27;20184;-82
2021/12/31 09:05:19;;;;;;;1.83;0.60;;;13.60;99.90;;;;;;8457717;28;20188;-81
2021/12/31 09:09:19;;;;;;;1.83;0.70;;;13.70;99.90;;;;;;8449787;27;20227;-82
2021/12/31 09:13:20;;;;;;;3.60;1.20;;;13.70;99.90;;;;;;8447791;27;20215;-79
2021/12/31 09:17:22;;;;;;;6.03;1.90;;;13.80;99.90;;;;;;8444494;28;20208;-81
2021/12/31 09:21:23;;;;;;;4.50;1.40;;;14.00;99.90;;;;;;8452720;27;20183;-80
2021/12/31 09:25:24;;;;;;;1.70;0.50;;;14.30;99.90;;;;;;8452013;27;20191;-80
2021/12/31 09:29:25;;;;;;;0.83;0.50;;;14.30;99.90;;;;;;8465634;27;20187;-82
2021/12/31 09:33:26;;;;;;;1.73;0.67;;;14.30;99.90;;;;;;8460472;28;20207;-83
2021/12/31 09:37:27;;;;;;;2.80;0.47;;;14.30;55.20;;;;;;8470314;27;20223;-80
2021/12/31 09:41:28;;;;;;;1.10;0.70;;;14.50;76.10;;;;;;8451548;28;20188;-81
2021/12/31 09:45:30;;;;;;;1.37;0.87;;;14.60;1.00;;;;;;8460758;27;20195;-81
2021/12/31 09:49:30;;;;;;;1.47;0.97;;;14.60;30.30;;;;;;8455725;27;20187;-82
2021/12/31 09:53:31;;;;;;;2.07;1.00;;;14.70;1.00;;;;;;8454764;27;20203;-81
2021/12/31 09:57:32;;;;;;;1.20;0.80;;;15.00;1.00;;;;;;8460964;27;20223;-82
2021/12/31 10:01:33;;;;;;;1.20;0.60;;;15.10;1.00;;;;;;8458698;28;20176;-81
2021/12/31 10:05:46;;;;;;;0.90;0.40;;;15.20;1.00;;;;;;8443253;28;20284;-81
2021/12/31 10:10:14;;;;;;;0.90;0.60;;;15.40;99.90;;;;;;8454447;28;20199;-82
2021/12/31 10:14:15;;;;;;;1.10;0.80;;;15.40;99.90;;;;;;8455740;28;20191;-81
2021/12/31 10:18:16;;;;;;;1.20;0.50;;;15.30;99.90;;;;;;8464529;27;20199;-83
2021/12/31 10:22:18;;;;;;;1.37;0.50;;;15.20;99.90;;;;;;8451613;28;20199;-80
2021/12/31 10:26:19;;;;;;;1.67;0.60;;;14.90;99.90;;;;;;8458354;27;20361;-84
2021/12/31 10:30:26;;;;;;;0.63;0.40;;;14.90;99.90;;;;;;8468430;28;20188;-81
2021/12/31 10:34:36;;;;;;;3.53;0.67;;;15.20;99.90;;;;;;8455100;27;20192;-82
2021/12/31 10:38:39;;;;;;;1.73;0.60;;;15.50;99.90;;;;;;8454178;27;20223;-82
2021/12/31 10:42:41;;;;;;;1.00;0.60;;;15.50;99.90;;;;;;8453160;28;20230;-81
2021/12/31 10:46:42;;;;;;;1.00;0.60;;;15.50;99.90;;;;;;8446489;28;20192;-81
2021/12/31 10:50:51;;;;;;;1.10;0.60;;;15.40;88.10;;;;;;8453382;28;20191;-81
2021/12/31 10:55:04;;;;;;;1.60;0.60;;;15.40;1.00;;;;;;8449835;28;20177;-80
2021/12/31 10:59:05;;;;;;;1.17;0.50;;;15.40;99.90;;;;;;8450168;28;20219;-81
2021/12/31 11:03:07;;;;;;;1.30;0.50;;;15.30;99.90;;;;;;8450683;28;20192;-84
2021/12/31 11:07:09;;;;;;;1.33;0.53;;;15.10;1.00;;;;;;8443118;28;21009;-82
2021/12/31 11:11:12;;;;;;;0.93;0.50;;;15.00;12.10;;;;;;8445787;28;20294;-81
2021/12/31 11:15:14;;;;;;;2.97;0.53;;;15.00;1.00;;;;;;8451061;28;20200;-81
2021/12/31 11:19:16;;;;;;;0.90;0.60;;;15.00;1.00;;;;;;8450236;28;20299;-83
2021/12/31 11:23:17;;;;;;;1.10;0.70;;;15.00;99.90;;;;;;8459440;28;20184;-81
2021/12/31 11:27:28;;;;;;;1.33;0.80;;;15.10;99.90;;;;;;8450954;28;20230;-81
2021/12/31 11:31:29;;;;;;;0.90;0.67;;;15.10;99.90;;;;;;8459298;28;20208;-81
2021/12/31 11:35:50;;;;;;;2.20;1.57;;;15.00;1.00;;;;;;8448503;28;20204;-81
2021/12/31 11:40:27;;;;;;;1.40;0.90;;;15.10;99.90;;;;;;8437615;28;20245;-83
2021/12/31 11:44:29;;;;;;;2.30;1.00;;;15.30;1.00;;;;;;8441840;28;20192;-81
2021/12/31 11:48:48;;;;;;;1.47;0.60;;;15.10;1.00;;;;;;8444207;28;20199;-81
2021/12/31 11:53:03;;;;;;;1.83;1.23;;;15.10;99.90;;;;;;8444638;28;20192;-81
2021/12/31 11:57:05;;;;;;;2.57;0.60;;;15.10;99.90;;;;;;8450118;28;20692;-81
2021/12/31 12:01:51;;;;;;;1.17;1.00;;;15.20;1.00;;;;;;8449675;27;20195;-82
2021/12/31 12:05:54;;;;;;;2.33;0.80;;;15.20;99.90;;;;;;8447333;28;20281;-80
2021/12/31 12:09:54;;;;;;;1.27;0.63;;;15.20;1.00;;;;;;8451629;27;20268;-81
2021/12/31 12:14:27;;;;;;;2.83;1.33;;;15.30;99.90;;;;;;8472155;27;20182;-81
2021/12/31 12:18:52;;;;;;;1.67;0.70;;;15.30;99.90;;;;;;8449136;27;20212;-80
2021/12/31 12:22:54;;;;;;;0.87;0.50;;;15.30;99.90;;;;;;8457265;27;20188;-81
2021/12/31 12:27:01;;;;;;;1.20;0.70;;;15.30;99.90;;;;;;8456557;27;20234;-80
2021/12/31 12:31:16;;;;;;;1.13;0.73;;;15.20;19.50;;;;;;8455635;27;20215;-82
2021/12/31 12:35:21;;;;;;;1.87;1.33;;;15.10;1.00;;;;;;8450609;27;20192;-81
2021/12/31 12:39:23;;;;;;;4.30;0.80;;;15.00;99.90;;;;;;8449755;28;20222;-81
2021/12/31 12:43:30;;;;;;;3.93;0.90;;;15.00;99.90;;;;;;8452028;28;20237;-82
2021/12/31 12:47:31;;;;;;;4.97;1.50;;;15.00;1.00;;;;;;8457375;27;20194;-81
2021/12/31 12:51:32;;;;;;;3.67;1.00;;;14.90;99.90;;;;;;8458177;27;20184;-81
2021/12/31 12:55:33;;;;;;;1.43;0.80;;;14.90;99.90;;;;;;8446073;27;20230;-81
2021/12/31 12:59:37;;;;;;;4.93;1.97;;;15.00;99.90;;;;;;8458927;27;20268;-80
2021/12/31 13:03:50;;;;;;;7.47;2.43;;;15.00;93.40;;;;;;8453428;28;20191;-81
2021/12/31 13:07:53;;;;;;;46.53;13.70;;;14.90;1.00;;;;;;8465721;27;20419;-81
2021/12/31 13:11:59;;;;;;;27.83;7.90;;;14.80;99.90;;;;;;8461295;27;20222;-83
2021/12/31 13:16:01;;;;;;;59.97;14.00;;;14.80;99.90;;;;;;8447014;28;20218;-81
2021/12/31 13:20:06;;;;;;;16.33;4.57;;;14.80;1.00;;;;;;8447488;28;20495;-81
2021/12/31 13:24:08;;;;;;;7.37;2.30;;;14.90;99.90;;;;;;8451643;27;20180;-81
2021/12/31 13:28:18;;;;;;;9.20;2.90;;;14.90;99.90;;;;;;8444091;27;20176;-82
2021/12/31 13:32:21;;;;;;;2.83;1.63;;;14.90;99.90;;;;;;8446284;27;20185;-81
2021/12/31 13:36:28;;;;;;;3.80;1.80;;;14.80;99.90;;;;;;8451843;27;20204;-82
2021/12/31 13:40:29;;;;;;;4.47;1.60;;;14.70;99.90;;;;;;8450102;27;20188;-81
2021/12/31 13:44:36;;;;;;;8.90;3.17;;;14.70;1.00;;;;;;8451222;27;20199;-81
2021/12/31 13:48:37;;;;;;;3.90;1.50;;;14.60;99.90;;;;;;8451492;27;20195;-82
2021/12/31 13:52:49;;;;;;;3.63;1.60;;;14.50;99.90;;;;;;8444632;27;20195;-81
2021/12/31 13:56:51;;;;;;;4.97;1.40;;;14.50;99.90;;;;;;8458460;28;20204;-81
2021/12/31 14:00:51;;;;;;;2.43;1.20;;;14.50;1.00;;;;;;8455532;27;20221;-81
2021/12/31 14:04:58;;;;;;;3.43;1.90;;;14.40;99.90;;;;;;8454257;28;20541;-81
2021/12/31 14:08:59;;;;;;;6.57;2.47;;;14.50;99.90;;;;;;8454426;27;20194;-82
2021/12/31 14:13:10;;;;;;;5.33;1.80;;;14.40;99.90;;;;;;8455746;27;20303;-82
2021/12/31 14:17:11;;;;;;;2.50;1.30;;;14.40;99.90;;;;;;8455386;27;20199;-82
2021/12/31 14:21:13;;;;;;;2.50;1.63;;;14.40;98.90;;;;;;8448523;27;20249;-81
2021/12/31 14:25:14;;;;;;;2.17;1.20;;;14.40;99.90;;;;;;8455051;27;20176;-82
2021/12/31 14:29:18;;;;;;;3.30;1.80;;;14.30;1.00;;;;;;8449843;27;20187;-82
2021/12/31 14:33:19;;;;;;;8.10;3.40;;;14.30;1.00;;;;;;8448579;27;20184;-82
2021/12/31 14:37:20;;;;;;;12.43;3.93;;;14.30;99.90;;;;;;8435391;28;20247;-81
2021/12/31 14:41:23;;;;;;;11.20;3.87;;;14.30;1.00;;;;;;8442097;28;20176;-81
2021/12/31 14:45:24;;;;;;;5.80;3.03;;;14.40;1.00;;;;;;8452441;28;20188;-81
2021/12/31 14:49:27;;;;;;;3.73;2.10;;;14.50;99.90;;;;;;8452255;27;20191;-81
2021/12/31 14:53:28;;;;;;;9.97;5.20;;;14.50;1.00;;;;;;8449210;27;20190;-81
2021/12/31 14:57:29;;;;;;;8.40;4.83;;;14.30;1.00;;;;;;8442673;27;20204;-81
2021/12/31 15:01:30;;;;;;;16.67;7.73;;;14.10;99.90;;;;;;8445071;28;20271;-80
2021/12/31 15:05:32;;;;;;;9.40;4.47;;;13.90;90.20;;;;;;8446265;27;20193;-80
2021/12/31 15:09:33;;;;;;;6.93;3.83;;;13.80;1.00;;;;;;8445946;27;20271;-81
2021/12/31 15:13:34;;;;;;;7.80;4.73;;;13.80;99.90;;;;;;8446899;28;20184;-82
2021/12/31 15:17:35;;;;;;;9.27;5.03;;;13.70;1.00;;;;;;8450009;27;20347;-82
2021/12/31 15:21:37;;;;;;;9.57;4.67;;;13.70;1.00;;;;;;8451604;28;20184;-82
2021/12/31 15:25:38;;;;;;;6.97;3.40;;;13.70;1.00;;;;;;8451843;28;20230;-81
2021/12/31 15:29:40;;;;;;;7.67;4.47;;;13.70;1.00;;;;;;8442381;28;21883;-83
2021/12/31 15:33:42;;;;;;;6.23;3.90;;;13.70;99.90;;;;;;8440520;28;20188;-81
2021/12/31 15:37:43;;;;;;;10.33;5.97;;;13.50;99.90;;;;;;8439867;28;20208;-82
2021/12/31 15:41:46;;;;;;;7.23;3.23;;;13.40;1.00;;;;;;8459346;27;21756;-83
2021/12/31 15:45:47;;;;;;;14.60;11.93;;;13.40;99.90;;;;;;8461653;27;20206;-83
2021/12/31 15:49:48;;;;;;;7.40;4.87;;;13.30;1.00;;;;;;8466481;27;20176;-83
2021/12/31 15:53:49;;;;;;;9.43;5.57;;;13.30;1.00;;;;;;8457318;27;20178;-83
2021/12/31 15:57:50;;;;;;;8.53;4.83;;;13.20;1.00;;;;;;8453810;27;20290;-83
2021/12/31 16:01:51;;;;;;;10.47;5.77;;;13.20;1.00;;;;;;8451287;27;20176;-83
2021/12/31 16:05:52;;;;;;;9.37;4.97;;;13.30;1.00;;;;;;8454372;28;20179;-83
2021/12/31 16:09:53;;;;;;;7.37;3.83;;;13.30;99.90;;;;;;8459280;27;20191;-83
2021/12/31 16:13:55;;;;;;;6.60;3.00;;;13.30;1.00;;;;;;8450592;27;20201;-83
2021/12/31 16:17:56;;;;;;;7.60;3.80;;;13.20;82.40;;;;;;8366525;27;20230;-83
2021/12/31 16:21:59;;;;;;;4.50;2.70;;;13.20;99.90;;;;;;8337499;27;20198;-84
2021/12/31 16:26:00;;;;;;;5.67;2.80;;;13.20;99.90;;;;;;8289304;28;20195;-84
2021/12/31 16:30:03;;;;;;;4.30;2.70;;;13.20;1.00;;;;;;8299503;28;20184;-83
2021/12/31 16:34:03;;;;;;;6.97;3.00;;;13.20;99.90;;;;;;8169037;28;20203;-83
2021/12/31 16:38:06;;;;;;;4.30;3.00;;;13.20;1.00;;;;;;8018769;28;20233;-83
2021/12/31 16:42:09;;;;;;;4.77;2.80;;;13.10;99.90;;;;;;7963913;28;21042;-84
2021/12/31 16:46:10;;;;;;;8.13;2.70;;;13.10;1.00;;;;;;8124716;27;21959;-84
2021/12/31 16:50:13;;;;;;;4.90;2.40;;;13.10;99.90;;;;;;8035990;28;20192;-84
2021/12/31 16:54:14;;;;;;;4.00;2.13;;;13.10;99.90;;;;;;8075366;28;20220;-84
2021/12/31 16:58:16;;;;;;;4.03;2.20;;;13.20;74.20;;;;;;8110147;27;21264;-82
2021/12/31 17:02:46;;;;;;;2.47;1.63;;;13.20;1.00;;;;;;8042771;28;23152;-84
2021/12/31 17:06:47;;;;;;;2.60;1.47;;;13.20;99.90;;;;;;8197260;27;20193;-83
2021/12/31 17:10:52;;;;;;;2.70;1.60;;;13.10;99.90;;;;;;8091691;28;21061;-84
2021/12/31 17:14:53;;;;;;;2.33;1.40;;;13.10;99.90;;;;;;8170737;28;20248;-84
2021/12/31 17:18:54;;;;;;;2.57;1.77;;;13.10;99.90;;;;;;8099473;28;21883;-85
2021/12/31 17:23:05;;;;;;;2.67;1.37;;;13.10;99.90;;;;;;8188109;28;20209;-84
2021/12/31 17:27:06;;;;;;;1.80;1.17;;;13.20;29.50;;;;;;8119335;28;20180;-84
2021/12/31 17:31:07;;;;;;;2.03;1.23;;;13.20;1.00;;;;;;8181097;28;20179;-84
2021/12/31 17:35:10;;;;;;;2.53;1.20;;;13.30;1.00;;;;;;8201725;28;20318;-83
2021/12/31 17:39:10;;;;;;;1.80;1.50;;;13.30;99.90;;;;;;8199401;28;20223;-84
2021/12/31 17:43:12;;;;;;;1.67;1.07;;;13.40;99.90;;;;;;8267354;28;20483;-85
2021/12/31 17:47:13;;;;;;;2.47;1.30;;;13.40;1.00;;;;;;8116860;28;20195;-83
2021/12/31 17:51:14;;;;;;;2.43;1.30;;;13.50;25.60;;;;;;8290551;28;20714;-85
2021/12/31 17:55:15;;;;;;;2.10;1.50;;;13.50;1.00;;;;;;8308360;28;20428;-83
2021/12/31 17:59:17;;;;;;;1.97;1.30;;;13.50;1.00;;;;;;8326675;28;20214;-84
2021/12/31 18:03:19;;;;;;;2.87;1.30;;;13.50;1.00;;;;;;8252492;28;20275;-84
2021/12/31 18:07:19;;;;;;;2.50;1.20;;;13.50;1.00;;;;;;8281806;28;20191;-83
2021/12/31 18:11:22;;;;;;;1.57;1.17;;;13.50;1.00;;;;;;8246755;28;20229;-83
2021/12/31 18:15:23;;;;;;;2.67;1.20;;;13.50;99.90;;;;;;8250442;28;20243;-84
2021/12/31 18:19:25;;;;;;;2.00;1.27;;;13.50;1.00;;;;;;8186413;28;20204;-83
2021/12/31 18:23:27;;;;;;;2.37;1.30;;;13.50;1.00;;;;;;8201369;28;20181;-83
2021/12/31 18:27:28;;;;;;;3.73;1.40;;;13.50;1.00;;;;;;8272748;28;20278;-83
2021/12/31 18:31:29;;;;;;;2.57;2.00;;;13.40;1.00;;;;;;8362691;28;20527;-82
2021/12/31 18:35:30;;;;;;;4.87;2.23;;;13.40;93.20;;;;;;8396111;28;20202;-83
2021/12/31 18:39:31;;;;;;;3.37;2.60;;;13.40;99.90;;;;;;8430441;27;20302;-83
2021/12/31 18:43:32;;;;;;;6.57;3.80;;;13.30;99.90;;;;;;8430050;28;20187;-83
2021/12/31 18:47:46;;;;;;;5.53;3.37;;;13.30;1.00;;;;;;8430116;28;20279;-84
2021/12/31 18:51:47;;;;;;;5.57;2.93;;;13.20;1.00;;;;;;8363388;28;20204;-82
2021/12/31 18:55:48;;;;;;;5.70;3.63;;;13.10;99.90;;;;;;8345711;28;20188;-82
2021/12/31 18:59:50;;;;;;;4.37;3.20;;;13.00;1.00;;;;;;8304033;28;20221;-84
2021/12/31 19:03:51;;;;;;;5.30;3.37;;;12.90;47.50;;;;;;8301628;28;20181;-83
2021/12/31 19:07:57;;;;;;;5.10;2.80;;;12.90;1.00;;;;;;8330386;28;20194;-83
2021/12/31 19:12:06;;;;;;;3.83;2.90;;;12.80;1.00;;;;;;8254922;28;20222;-82
2021/12/31 19:16:07;;;;;;;7.43;3.53;;;12.80;1.00;;;;;;8246804;28;20191;-84
2021/12/31 19:20:08;;;;;;;5.00;2.43;;;12.80;1.00;;;;;;8246101;28;20269;-83
2021/12/31 19:24:09;;;;;;;3.50;2.40;;;12.80;1.00;;;;;;8311435;28;20188;-84
2021/12/31 19:28:10;;;;;;;2.73;2.03;;;12.80;99.90;;;;;;8371256;28;20200;-83
2021/12/31 19:32:12;;;;;;;2.03;1.53;;;12.70;1.00;;;;;;8370170;28;20196;-83
2021/12/31 19:36:13;;;;;;;2.03;1.30;;;12.80;1.00;;;;;;8391598;28;20254;-84
2021/12/31 19:40:14;;;;;;;1.50;1.30;;;12.80;99.90;;;;;;8433117;28;20187;-84
2021/12/31 19:44:15;;;;;;;2.23;1.30;;;12.90;1.00;;;;;;8439828;28;20217;-84
2021/12/31 19:48:16;;;;;;;3.03;1.50;;;12.90;99.90;;;;;;8442393;28;20176;-84
2021/12/31 19:52:17;;;;;;;1.63;1.10;;;13.00;34.40;;;;;;8448154;28;20184;-84
2021/12/31 19:56:19;;;;;;;2.83;1.10;;;13.00;99.90;;;;;;8444568;28;20215;-83
2021/12/31 20:00:20;;;;;;;1.63;1.10;;;13.10;99.90;;;;;;8436105;28;20185;-83
2021/12/31 20:04:21;;;;;;;1.53;1.10;;;12.90;1.00;;;;;;8424991;28;20179;-83
2021/12/31 20:08:21;;;;;;;2.10;1.47;;;12.80;99.90;;;;;;8398000;28;20192;-84
2021/12/31 20:12:22;;;;;;;2.77;1.30;;;12.70;1.00;;;;;;8384308;28;20258;-83
2021/12/31 20:16:23;;;;;;;2.07;1.43;;;12.60;1.00;;;;;;8354269;28;20253;-83
2021/12/31 20:20:24;;;;;;;1.90;1.70;;;12.60;1.00;;;;;;8332655;28;20739;-85
2021/12/31 20:24:26;;;;;;;1.70;1.50;;;12.60;1.00;;;;;;8342144;28;20212;-86
2021/12/31 20:28:26;;;;;;;4.63;1.50;;;12.60;1.00;;;;;;8299676;28;20195;-84
2021/12/31 20:32:27;;;;;;;2.30;1.63;;;12.50;99.90;;;;;;8287224;27;20196;-83
2021/12/31 20:36:29;;;;;;;2.93;1.77;;;12.20;99.90;;;;;;8330685;28;20214;-83
2021/12/31 20:40:30;;;;;;;5.43;1.80;;;12.00;99.90;;;;;;8357461;28;20188;-84
2021/12/31 20:44:34;;;;;;;2.07;1.70;;;11.80;99.90;;;;;;8356194;28;20180;-83
2021/12/31 20:48:35;;;;;;;2.10;1.57;;;11.70;99.90;;;;;;8377433;28;20465;-83
2021/12/31 20:52:36;;;;;;;2.93;1.60;;;11.70;99.90;;;;;;8377348;28;20199;-82
2021/12/31 20:56:36;;;;;;;2.33;1.73;;;11.60;99.90;;;;;;8441543;27;20203;-82
2021/12/31 21:00:37;;;;;;;2.83;1.83;;;11.60;99.90;;;;;;8444492;28;20332;-83
2021/12/31 21:04:39;;;;;;;2.23;1.90;;;11.60;99.90;;;;;;8444940;28;20204;-83